createdAt,value
2022-08-11T00:02:33.612Z,17.10
2022-08-11T00:05:08.358Z,17.10
2022-08-11T00:07:43.475Z,17.10
2022-08-11T00:10:13.786Z,17.10
2022-08-11T00:12:43.379Z,17.10
2022-08-11T00:15:14.101Z,17.10
2022-08-11T00:17:42.817Z,17.10
2022-08-11T00:20:16.735Z,17.20
2022-08-11T00:22:47.580Z,17.10
2022-08-11T00:25:18.027Z,17.10
2022-08-11T00:27:47.394Z,17.10
2022-08-11T00:30:18.130Z,17.20
2022-08-11T00:32:58.936Z,17.20
2022-08-11T00:35:54.226Z,17.10
2022-08-11T00:38:25.720Z,17.20
2022-08-11T00:41:00.623Z,17.20
2022-08-11T00:43:48.432Z,17.30
2022-08-11T00:46:30.783Z,17.20
2022-08-11T00:49:11.915Z,17.30
2022-08-11T00:52:03.880Z,17.20
2022-08-11T00:55:05.137Z,17.20
2022-08-11T00:57:54.575Z,17.30
2022-08-11T01:00:25.061Z,17.10
2022-08-11T01:03:17.931Z,17.00
2022-08-11T01:06:04.546Z,17.00
2022-08-11T01:09:03.009Z,17.00
2022-08-11T01:11:59.700Z,17.00
2022-08-11T01:15:16.103Z,17.00
2022-08-11T01:18:32.982Z,17.10
2022-08-11T01:21:34.475Z,17.20
2022-08-11T01:24:59.308Z,17.10
2022-08-11T01:28:05.964Z,17.10
2022-08-11T01:31:10.335Z,17.10
2022-08-11T01:34:23.059Z,17.00
2022-08-11T01:37:18.019Z,17.10
2022-08-11T01:40:30.709Z,17.10
2022-08-11T01:43:50.344Z,17.10
2022-08-11T01:46:27.892Z,17.00
2022-08-11T01:50:06.409Z,17.10
2022-08-11T01:52:19.011Z,17.10
2022-08-11T01:54:54.201Z,17.00
2022-08-11T01:57:33.986Z,16.90
2022-08-11T02:00:09.598Z,16.80
2022-08-11T02:02:47.634Z,16.80
2022-08-11T02:05:41.600Z,16.70
2022-08-11T02:08:22.246Z,16.70
2022-08-11T02:11:35.596Z,16.60
2022-08-11T02:14:22.525Z,16.60
2022-08-11T02:17:03.608Z,16.60
2022-08-11T02:19:59.343Z,16.60
2022-08-11T02:22:51.866Z,16.50
2022-08-11T02:25:30.433Z,16.50
2022-08-11T02:28:04.615Z,16.50
2022-08-11T02:30:38.363Z,16.50
2022-08-11T02:33:24.732Z,16.50
2022-08-11T02:36:09.094Z,16.40
2022-08-11T02:38:45.344Z,16.30
2022-08-11T02:41:40.751Z,16.30
2022-08-11T02:44:25.803Z,16.20
2022-08-11T02:47:14.591Z,16.30
2022-08-11T02:49:59.927Z,16.30
2022-08-11T02:52:46.352Z,16.30
2022-08-11T02:55:56.036Z,16.30
2022-08-11T02:58:27.176Z,16.30
2022-08-11T03:01:11.636Z,16.30
2022-08-11T03:03:52.530Z,16.30
2022-08-11T03:06:28.252Z,16.40
2022-08-11T03:09:04.499Z,16.40
2022-08-11T03:12:09.748Z,16.20
2022-08-11T03:15:05.634Z,16.20
2022-08-11T03:17:39.024Z,16.30
2022-08-11T03:20:33.305Z,16.20
2022-08-11T03:23:20.025Z,16.20
2022-08-11T03:25:54.793Z,16.20
2022-08-11T03:28:31.483Z,16.10
2022-08-11T03:31:17.180Z,16.00
2022-08-11T03:34:07.873Z,16.10
2022-08-11T03:37:34.386Z,16.10
2022-08-11T03:40:12.452Z,16.10
2022-08-11T03:42:47.385Z,16.00
2022-08-11T03:45:27.394Z,16.00
2022-08-11T03:48:16.010Z,15.90
2022-08-11T03:51:02.530Z,16.00
2022-08-11T03:53:49.163Z,16.10
2022-08-11T03:57:09.742Z,16.10
2022-08-11T04:00:16.646Z,16.00
2022-08-11T04:03:13.882Z,15.90
2022-08-11T04:06:17.446Z,15.80
2022-08-11T04:09:16.662Z,15.80
2022-08-11T04:12:14.828Z,15.80
2022-08-11T04:15:56.226Z,15.90
2022-08-11T04:18:51.787Z,15.90
2022-08-11T04:21:37.962Z,15.90
2022-08-11T04:24:39.963Z,15.80
2022-08-11T04:27:47.857Z,15.90
2022-08-11T04:30:23.107Z,15.90
2022-08-11T04:33:19.588Z,15.90
2022-08-11T04:35:59.141Z,15.90
2022-08-11T04:38:47.149Z,15.80
2022-08-11T04:42:06.250Z,15.90
2022-08-11T04:45:07.035Z,15.80
2022-08-11T04:48:08.800Z,16.00
2022-08-11T04:51:17.526Z,16.00
2022-08-11T04:54:14.294Z,15.90
2022-08-11T04:57:03.598Z,15.90
2022-08-11T05:00:30.973Z,15.90
2022-08-11T05:03:41.778Z,16.00
2022-08-11T05:06:45.187Z,16.00
2022-08-11T05:09:30.001Z,16.10
2022-08-11T05:12:27.048Z,16.20
2022-08-11T05:15:13.409Z,16.30
2022-08-11T05:18:03.668Z,16.30
2022-08-11T05:21:05.186Z,16.30
2022-08-11T05:23:54.220Z,16.40
2022-08-11T05:26:47.640Z,16.40
2022-08-11T05:29:54.708Z,16.50
2022-08-11T05:32:42.745Z,16.60
2022-08-11T05:35:15.839Z,16.60
2022-08-11T05:38:21.503Z,16.70
2022-08-11T05:41:09.089Z,16.70
2022-08-11T05:44:20.897Z,16.80
2022-08-11T05:47:07.738Z,16.70
2022-08-11T05:49:53.987Z,16.90
2022-08-11T05:52:42.193Z,16.90
2022-08-11T05:55:31.588Z,17.00
2022-08-11T05:58:03.351Z,17.10
2022-08-11T06:00:32.377Z,17.20
2022-08-11T06:03:07.387Z,17.30
2022-08-11T06:05:43.175Z,17.30
2022-08-11T06:08:13.693Z,17.40
2022-08-11T06:10:45.319Z,17.40
2022-08-11T06:13:17.957Z,17.50
2022-08-11T06:15:48.342Z,17.60
2022-08-11T06:18:18.031Z,17.70
2022-08-11T06:20:48.980Z,17.80
2022-08-11T06:23:19.611Z,17.80
2022-08-11T06:25:50.199Z,18.00
2022-08-11T06:28:21.346Z,18.00
2022-08-11T06:30:50.756Z,18.10
2022-08-11T06:33:22.648Z,18.20
2022-08-11T06:36:03.923Z,18.20
2022-08-11T06:38:47.988Z,18.30
2022-08-11T06:41:34.488Z,18.40
2022-08-11T06:44:13.199Z,18.50
2022-08-11T06:46:44.643Z,18.60
2022-08-11T06:49:28.791Z,18.70
2022-08-11T06:52:01.794Z,18.80
2022-08-11T06:54:38.662Z,18.80
2022-08-11T06:57:30.697Z,19.00
2022-08-11T07:00:17.843Z,19.20
2022-08-11T07:02:50.451Z,19.50
2022-08-11T07:05:24.353Z,19.80
2022-08-11T07:09:03.738Z,19.90
2022-08-11T07:12:12.696Z,20.10
2022-08-11T07:15:08.573Z,20.70
2022-08-11T07:17:43.861Z,20.70
2022-08-11T07:20:31.331Z,21.00
2022-08-11T07:23:19.996Z,21.00
2022-08-11T07:26:11.317Z,21.10
2022-08-11T07:28:58.802Z,21.20
2022-08-11T07:31:42.266Z,21.20
2022-08-11T07:34:20.279Z,21.20
2022-08-11T07:36:52.538Z,21.20
2022-08-11T07:39:23.674Z,21.20
2022-08-11T07:41:54.728Z,21.20
2022-08-11T07:44:30.697Z,21.40
2022-08-11T07:47:19.418Z,21.70
2022-08-11T07:50:09.009Z,21.50
2022-08-11T07:52:40.641Z,21.40
2022-08-11T07:55:14.650Z,21.40
2022-08-11T07:58:16.068Z,21.50
2022-08-11T08:01:10.342Z,21.60
2022-08-11T08:04:03.729Z,21.70
2022-08-11T08:06:51.483Z,21.70
2022-08-11T08:09:39.693Z,21.80
2022-08-11T08:12:27.423Z,21.90
2022-08-11T08:15:14.703Z,21.90
2022-08-11T08:18:20.399Z,22.20
2022-08-11T08:20:45.568Z,22.60
2022-08-11T08:23:14.548Z,22.90
2022-08-11T08:25:44.845Z,22.70
2022-08-11T08:28:17.653Z,22.50
2022-08-11T08:30:49.924Z,22.30
2022-08-11T08:33:22.079Z,22.20
2022-08-11T08:36:11.917Z,22.00
2022-08-11T08:38:42.311Z,21.90
2022-08-11T08:41:13.402Z,21.80
2022-08-11T08:43:49.896Z,21.90
2022-08-11T08:46:21.915Z,22.00
2022-08-11T08:48:52.169Z,22.10
2022-08-11T08:51:58.611Z,22.00
2022-08-11T08:54:26.815Z,21.90
2022-08-11T08:56:57.411Z,21.90
2022-08-11T08:59:47.717Z,22.20
2022-08-11T09:02:17.324Z,22.50
2022-08-11T09:04:47.959Z,22.70
2022-08-11T09:07:19.272Z,23.00
2022-08-11T09:09:49.521Z,22.90
2022-08-11T09:12:46.342Z,23.10
2022-08-11T09:15:11.723Z,23.50
2022-08-11T09:17:42.602Z,23.90
2022-08-11T09:20:16.040Z,24.10
2022-08-11T09:24:07.928Z,24.10
2022-08-11T09:26:14.657Z,24.50
2022-08-11T09:28:44.130Z,25.20
2022-08-11T09:31:13.730Z,25.50
2022-08-11T09:33:43.883Z,26.70
2022-08-11T09:36:31.495Z,27.30
2022-08-11T09:39:19.538Z,25.90
2022-08-11T09:42:00.969Z,24.90
2022-08-11T09:44:52.907Z,24.20
2022-08-11T09:47:24.534Z,23.80
2022-08-11T09:49:56.265Z,23.50
2022-08-11T09:52:26.240Z,23.20
2022-08-11T09:54:56.633Z,23.30
2022-08-11T09:57:43.846Z,24.30
2022-08-11T10:00:15.233Z,26.40
2022-08-11T10:02:46.291Z,29.40
2022-08-11T10:05:36.394Z,30.00
2022-08-11T10:08:05.840Z,30.10
2022-08-11T10:10:38.709Z,31.40
2022-08-11T10:14:31.122Z,33.90
2022-08-11T10:16:15.842Z,36.70
2022-08-11T10:18:53.069Z,34.80
2022-08-11T10:21:36.040Z,32.90
2022-08-11T10:24:23.735Z,34.20
2022-08-11T10:26:55.782Z,36.40
2022-08-11T10:29:44.463Z,38.30
2022-08-11T10:32:46.332Z,34.30
2022-08-11T10:35:28.112Z,29.40
2022-08-11T10:38:06.603Z,27.30
2022-08-11T10:40:40.288Z,27.30
2022-08-11T10:43:14.240Z,27.10
2022-08-11T10:46:03.359Z,26.60
2022-08-11T10:48:36.385Z,26.10
2022-08-11T10:51:13.961Z,25.80
2022-08-11T10:54:03.003Z,26.40
2022-08-11T10:56:50.091Z,26.60
2022-08-11T10:59:20.008Z,26.20
2022-08-11T11:01:48.515Z,25.50
2022-08-11T11:04:19.271Z,25.00
2022-08-11T11:06:56.217Z,24.90
2022-08-11T11:09:32.635Z,24.90
2022-08-11T11:12:25.313Z,25.00
2022-08-11T11:15:17.992Z,25.30
2022-08-11T11:18:01.678Z,25.80
2022-08-11T11:20:37.747Z,25.50
2022-08-11T11:23:13.623Z,25.00
2022-08-11T11:26:15.001Z,24.30
2022-08-11T11:29:16.501Z,24.40
2022-08-11T11:32:00.336Z,24.70
2022-08-11T11:34:53.624Z,25.10
2022-08-11T11:37:23.725Z,25.30
2022-08-11T11:39:53.043Z,25.60
2022-08-11T11:42:23.051Z,25.90
2022-08-11T11:44:55.609Z,26.30
2022-08-11T11:47:26.521Z,26.40
2022-08-11T11:49:55.912Z,26.30
2022-08-11T11:52:25.360Z,25.70
2022-08-11T11:54:57.286Z,25.30
2022-08-11T11:57:58.801Z,25.10
2022-08-11T12:00:46.115Z,25.00
2022-08-11T12:03:16.139Z,25.00
2022-08-11T12:05:46.003Z,25.00
2022-08-11T12:08:16.251Z,25.40
2022-08-11T12:10:47.103Z,25.70
2022-08-11T12:13:34.177Z,26.10
2022-08-11T12:16:34.444Z,26.30
2022-08-11T12:18:57.512Z,26.30
2022-08-11T12:21:26.925Z,25.60
2022-08-11T12:24:14.928Z,25.10
2022-08-11T12:27:15.690Z,24.70
2022-08-11T12:29:54.239Z,24.50
2022-08-11T12:32:25.486Z,24.50
2022-08-11T12:34:57.009Z,24.60
2022-08-11T12:37:30.655Z,24.70
2022-08-11T12:40:43.635Z,24.70
2022-08-11T12:43:37.291Z,24.80
2022-08-11T12:46:09.994Z,25.00
2022-08-11T12:49:03.014Z,25.00
2022-08-11T12:52:14.084Z,25.10
2022-08-11T12:54:57.975Z,25.10
2022-08-11T12:57:50.261Z,25.10
2022-08-11T13:00:37.767Z,25.20
2022-08-11T13:03:26.333Z,25.40
2022-08-11T13:05:57.645Z,25.40
2022-08-11T13:08:29.646Z,25.40
2022-08-11T13:11:19.625Z,25.20
2022-08-11T13:13:55.270Z,25.30
2022-08-11T13:16:27.690Z,25.20
2022-08-11T13:18:56.798Z,25.30
2022-08-11T13:21:25.381Z,25.30
2022-08-11T13:24:00.409Z,25.30
2022-08-11T13:26:47.075Z,25.30
2022-08-11T13:29:20.146Z,25.40
2022-08-11T13:31:48.870Z,25.50
2022-08-11T13:34:17.996Z,25.70
2022-08-11T13:36:46.856Z,25.80
2022-08-11T13:39:16.797Z,25.70
2022-08-11T13:41:47.920Z,25.40
2022-08-11T13:44:24.664Z,25.30
2022-08-11T13:46:55.471Z,25.30
2022-08-11T13:49:24.436Z,25.60
2022-08-11T13:51:53.695Z,25.90
2022-08-11T13:54:26.559Z,26.20
2022-08-11T13:56:56.996Z,26.30
2022-08-11T13:59:29.582Z,26.40
2022-08-11T14:02:28.268Z,26.20
2022-08-11T14:04:55.971Z,24.80
2022-08-11T14:07:26.943Z,23.20
2022-08-11T14:10:00.031Z,19.90
2022-08-11T14:12:49.761Z,18.20
2022-08-11T14:15:21.515Z,16.80
2022-08-11T14:17:53.871Z,16.60
2022-08-11T14:20:39.450Z,16.60
2022-08-11T14:23:10.977Z,16.80
2022-08-11T14:26:03.020Z,16.70
2022-08-11T14:28:40.264Z,17.00
2022-08-11T14:31:13.228Z,16.80
2022-08-11T14:34:00.645Z,16.80
2022-08-11T14:36:33.122Z,16.90
2022-08-11T14:39:04.554Z,16.60
2022-08-11T14:42:11.119Z,16.50
2022-08-11T14:45:00.645Z,16.40
2022-08-11T14:47:31.986Z,16.40
2022-08-11T14:50:10.339Z,16.50
2022-08-11T14:52:46.813Z,16.70
2022-08-11T14:55:33.420Z,16.80
2022-08-11T14:58:04.364Z,16.90
2022-08-11T15:00:34.748Z,16.70
2022-08-11T15:03:10.913Z,16.80
2022-08-11T15:05:56.177Z,17.00
2022-08-11T15:08:48.804Z,16.90
2022-08-11T15:11:36.386Z,17.20
2022-08-11T15:14:09.477Z,17.60
2022-08-11T15:16:56.340Z,17.60
2022-08-11T15:19:40.520Z,17.70
2022-08-11T15:22:28.236Z,17.70
2022-08-11T15:24:56.997Z,17.50
2022-08-11T15:27:43.998Z,17.30
2022-08-11T15:30:32.975Z,17.30
2022-08-11T15:33:25.371Z,17.30
2022-08-11T15:36:12.109Z,17.00
2022-08-11T15:38:45.587Z,17.40
2022-08-11T15:41:35.725Z,17.60
2022-08-11T15:44:33.785Z,17.50
2022-08-11T15:47:14.385Z,17.50
2022-08-11T15:50:10.639Z,17.50
2022-08-11T15:52:39.317Z,17.50
2022-08-11T15:55:09.190Z,17.60
2022-08-11T15:57:56.497Z,17.70
2022-08-11T16:00:43.171Z,17.90
2022-08-11T16:04:06.321Z,17.80
2022-08-11T16:06:22.479Z,18.20
2022-08-11T16:08:56.377Z,18.40
2022-08-11T16:11:26.129Z,18.50
2022-08-11T16:14:13.126Z,18.60
2022-08-11T16:16:45.798Z,18.50
2022-08-11T16:19:16.866Z,18.40
2022-08-11T16:21:45.926Z,18.40
2022-08-11T16:27:02.676Z,18.50
2022-08-11T16:27:13.433Z,18.60
2022-08-11T16:29:45.405Z,18.60
2022-08-11T16:32:20.747Z,18.70
2022-08-11T16:35:15.920Z,18.70
2022-08-11T16:38:03.623Z,18.80
2022-08-11T16:40:33.612Z,18.80
2022-08-11T16:43:22.036Z,18.80
2022-08-11T16:46:08.072Z,18.80
2022-08-11T16:48:41.522Z,18.80
2022-08-11T16:51:13.940Z,18.80
2022-08-11T16:53:47.359Z,18.90
2022-08-11T16:56:36.925Z,18.90
2022-08-11T16:59:16.007Z,18.90
2022-08-11T17:01:49.402Z,18.90
2022-08-11T17:04:49.782Z,18.90
2022-08-11T17:07:41.464Z,19.00
2022-08-11T17:10:50.936Z,19.00
2022-08-11T17:13:29.081Z,19.10
2022-08-11T17:16:08.109Z,19.10
2022-08-11T17:18:43.423Z,19.10
2022-08-11T17:21:17.488Z,19.10
2022-08-11T17:23:50.365Z,19.10
2022-08-11T17:26:21.956Z,19.10
2022-08-11T17:28:54.079Z,19.10
2022-08-11T17:31:41.702Z,19.00
2022-08-11T17:34:27.620Z,19.00
2022-08-11T17:36:56.866Z,19.00
2022-08-11T17:39:30.766Z,19.00
2022-08-11T17:42:18.746Z,19.00
2022-08-11T17:45:04.777Z,18.90
2022-08-11T17:47:52.609Z,18.90
2022-08-11T17:50:22.129Z,18.90
2022-08-11T17:53:08.623Z,18.90
2022-08-11T17:55:57.997Z,18.80
2022-08-11T17:58:44.824Z,18.80
2022-08-11T18:01:13.687Z,18.70
2022-08-11T18:03:57.636Z,18.70
2022-08-11T18:06:33.605Z,18.60
2022-08-11T18:09:22.704Z,18.60
2022-08-11T18:12:12.980Z,18.60
2022-08-11T18:15:00.713Z,18.60
2022-08-11T18:17:46.561Z,18.60
2022-08-11T18:20:32.082Z,18.60
2022-08-11T18:23:41.831Z,18.60
2022-08-11T18:26:30.619Z,18.50
2022-08-11T18:29:19.099Z,18.50
2022-08-11T18:32:08.236Z,18.50
2022-08-11T18:34:59.116Z,18.50
2022-08-11T18:37:49.259Z,18.50
2022-08-11T18:40:38.539Z,18.50
2022-08-11T18:43:28.169Z,18.50
2022-08-11T18:46:19.969Z,18.50
2022-08-11T18:49:11.856Z,18.50
2022-08-11T18:52:04.853Z,18.50
2022-08-11T18:54:53.232Z,18.50
2022-08-11T18:57:47.021Z,18.50
2022-08-11T19:00:37.501Z,18.40
2022-08-11T19:03:25.582Z,18.40
2022-08-11T19:06:38.220Z,18.40
2022-08-11T19:09:20.862Z,18.40
2022-08-11T19:12:07.864Z,18.40
2022-08-11T19:14:54.439Z,18.30
2022-08-11T19:17:45.935Z,18.30
2022-08-11T19:20:36.306Z,18.30
2022-08-11T19:23:23.901Z,18.20
2022-08-11T19:26:09.312Z,18.20
2022-08-11T19:28:58.469Z,18.20
2022-08-11T19:31:45.540Z,18.10
2022-08-11T19:34:34.392Z,18.10
2022-08-11T19:37:25.077Z,18.00
2022-08-11T19:40:12.135Z,18.00
2022-08-11T19:42:59.986Z,18.00
2022-08-11T19:45:52.958Z,18.00
2022-08-11T19:48:40.588Z,17.90
2022-08-11T19:51:27.621Z,17.90
2022-08-11T19:54:16.423Z,17.90
2022-08-11T19:57:04.228Z,17.90
2022-08-11T19:59:51.399Z,17.80
2022-08-11T20:02:38.218Z,17.70
2022-08-11T20:05:25.344Z,17.70
2022-08-11T20:08:12.529Z,17.70
2022-08-11T20:11:00.886Z,17.70
2022-08-11T20:13:47.724Z,17.70
2022-08-11T20:16:38.869Z,17.60
2022-08-11T20:19:25.935Z,17.60
2022-08-11T20:22:32.992Z,17.60
2022-08-11T20:25:19.747Z,17.60
2022-08-11T20:28:08.951Z,17.60
2022-08-11T20:30:55.422Z,17.60
2022-08-11T20:33:42.643Z,17.60
2022-08-11T20:36:30.503Z,17.60
2022-08-11T20:39:18.532Z,17.60
2022-08-11T20:42:06.340Z,17.60
2022-08-11T20:44:55.972Z,17.60
2022-08-11T20:47:59.150Z,17.50
2022-08-11T20:50:47.524Z,17.50
2022-08-11T20:53:35.784Z,17.40
2022-08-11T20:56:28.474Z,17.40
2022-08-11T20:59:17.698Z,17.40
2022-08-11T21:02:09.610Z,17.40
2022-08-11T21:04:57.415Z,17.40
2022-08-11T21:10:57.212Z,17.40
2022-08-11T21:13:46.392Z,17.30
2022-08-11T21:16:35.375Z,17.20
2022-08-11T21:20:00.490Z,17.10
2022-08-11T21:22:38.323Z,17.10
2022-08-11T21:25:29.399Z,17.10
2022-08-11T21:28:22.042Z,17.10
2022-08-11T21:31:08.736Z,17.00
2022-08-11T21:33:55.951Z,17.00
2022-08-11T21:36:44.443Z,17.00
2022-08-11T21:39:35.155Z,16.80
2022-08-11T21:42:23.068Z,16.80
2022-08-11T21:45:10.285Z,16.70
2022-08-11T21:48:01.114Z,16.60
2022-08-11T21:50:47.369Z,16.60
2022-08-11T21:53:34.776Z,16.60
2022-08-11T21:56:22.465Z,16.70
2022-08-11T21:59:14.838Z,16.70
2022-08-11T22:02:01.363Z,16.70
2022-08-11T22:04:49.570Z,16.70
2022-08-11T22:07:39.528Z,16.80
2022-08-11T22:10:41.921Z,16.80
2022-08-11T22:13:29.999Z,16.80
2022-08-11T22:16:16.472Z,16.80
2022-08-11T22:19:03.529Z,16.80
2022-08-11T22:22:02.480Z,16.90
2022-08-11T22:24:51.428Z,16.80
2022-08-11T22:27:38.972Z,16.60
2022-08-11T22:30:27.100Z,16.60
2022-08-11T22:33:15.300Z,16.60
2022-08-11T22:36:01.935Z,16.60
2022-08-11T22:38:49.511Z,16.60
2022-08-11T22:41:35.761Z,16.60
2022-08-11T22:44:23.176Z,16.60
2022-08-11T22:47:10.541Z,16.50
2022-08-11T22:50:00.887Z,16.50
2022-08-11T22:52:48.034Z,16.40
2022-08-11T22:55:34.570Z,16.40
2022-08-11T22:58:22.213Z,16.50
2022-08-11T23:01:09.959Z,16.40
2022-08-11T23:03:56.449Z,16.30
2022-08-11T23:06:43.136Z,16.30
2022-08-11T23:09:29.153Z,16.30
2022-08-11T23:12:16.221Z,16.20
2022-08-11T23:15:02.284Z,16.20
2022-08-11T23:17:50.526Z,16.20
2022-08-11T23:20:42.233Z,16.10
2022-08-11T23:23:40.285Z,16.00
2022-08-11T23:26:26.302Z,16.10
2022-08-11T23:29:16.727Z,16.00
2022-08-11T23:32:04.454Z,16.00
2022-08-11T23:35:03.950Z,15.90
2022-08-11T23:37:51.257Z,15.80
2022-08-11T23:40:36.665Z,15.90
2022-08-11T23:43:23.327Z,15.90
2022-08-11T23:46:09.022Z,15.90
2022-08-11T23:48:56.062Z,15.90
2022-08-11T23:51:44.241Z,15.90
2022-08-11T23:54:36.477Z,15.80
2022-08-11T23:57:23.464Z,15.80
